Time;durP1;ratioP1;P1;durP2;ratioP2;P2;SDS_P1;SDS_P2;PMS_P1;PMS_P2;Temp;Humidity;BMP_temperature;BMP_pressure;BME280_temperature;BME280_humidity;BME280_pressure;Samples;Min_cycle;Max_cycle;Signal;HPM_P1;HPM_P2
2024/02/02 00:00:14;;;;;;;0.00;0.00;;;;;;;3.44;100.00;102067.91;6104079;23;20081;-77
2024/02/02 00:02:47;;;;;;;0.10;0.10;;;;;;;3.44;100.00;102062.50;6074633;23;20213;-78
2024/02/02 00:05:12;;;;;;;0.00;0.00;;;;;;;3.65;100.00;102092.44;6107278;23;20021;-76
2024/02/02 00:07:40;;;;;;;0.00;0.00;;;;;;;3.60;100.00;102086.72;6102882;23;20017;-77
2024/02/02 00:10:09;;;;;;;0.00;0.00;;;;;;;3.64;100.00;102093.47;6083150;23;20418;-77
2024/02/02 00:12:35;;;;;;;0.00;0.00;;;;;;;3.46;100.00;102065.84;6102982;23;20021;-77
2024/02/02 00:15:02;;;;;;;0.00;0.00;;;;;;;3.62;100.00;102102.78;6102575;23;20016;-76
2024/02/02 00:17:27;;;;;;;0.00;0.00;;;;;;;3.54;100.00;102090.16;6078531;23;20009;-77
2024/02/02 00:19:55;;;;;;;0.00;0.00;;;;;;;3.60;100.00;102094.84;6100826;23;20513;-75
2024/02/02 00:22:41;;;;;;;0.00;0.00;;;;;;;3.60;100.00;102099.41;6105261;23;19993;-76
2024/02/02 00:25:07;;;;;;;0.00;0.00;;;;;;;3.46;100.00;102071.25;6103779;23;20104;-77
2024/02/02 00:27:35;;;;;;;0.00;0.00;;;;;;;3.60;100.00;102086.72;6104541;23;20025;-76
2024/02/02 00:30:01;;;;;;;0.00;0.00;;;;;;;3.46;100.00;102076.66;6126913;23;19994;-75
2024/02/02 00:32:26;;;;;;;0.00;0.00;;;;;;;3.47;100.00;102070.25;6128856;23;20076;-75
2024/02/02 00:34:52;;;;;;;0.00;0.00;;;;;;;3.59;100.00;102082.34;6077326;23;20048;-75
2024/02/02 00:37:17;;;;;;;0.00;0.00;;;;;;;3.56;100.00;102068.34;6102918;23;20077;-76
2024/02/02 00:39:43;;;;;;;0.00;0.00;;;;;;;3.56;100.00;102061.03;6104299;23;20037;-75
2024/02/02 00:42:08;;;;;;;0.10;0.10;;;;;;;3.60;100.00;102056.13;6078092;23;20025;-75
2024/02/02 00:44:34;;;;;;;0.00;0.00;;;;;;;3.58;100.00;102059.03;6076796;23;20010;-75
2024/02/02 00:46:59;;;;;;;0.00;0.00;;;;;;;3.54;100.00;102054.97;6075709;23;20034;-74
2024/02/02 00:49:25;;;;;;;0.00;0.00;;;;;;;3.57;100.00;102057.31;6079971;23;20121;-75
2024/02/02 00:51:50;;;;;;;0.00;0.00;;;;;;;3.59;100.00;102055.31;6080363;23;20081;-76
2024/02/02 00:54:16;;;;;;;0.00;0.00;;;;;;;3.64;100.00;102069.13;6105398;23;20010;-76
2024/02/02 00:56:41;;;;;;;0.00;0.00;;;;;;;3.62;100.00;102063.06;6082604;23;20010;-74
2024/02/02 00:59:07;;;;;;;0.00;0.00;;;;;;;3.59;100.00;102066.13;6103243;23;20069;-76
2024/02/02 01:01:32;;;;;;;0.00;0.00;;;;;;;3.60;100.00;102054.25;6102805;23;20625;-75
2024/02/02 01:03:58;;;;;;;0.00;0.00;;;;;;;3.69;100.00;102059.63;6078070;23;20017;-76
2024/02/02 01:06:23;;;;;;;0.00;0.00;;;;;;;3.67;100.00;102057.94;6101036;23;20073;-76
2024/02/02 01:08:49;;;;;;;0.00;0.00;;;;;;;3.78;100.00;102064.81;6104992;23;20061;-77
2024/02/02 01:11:15;;;;;;;0.10;0.10;;;;;;;3.63;100.00;102040.38;6077884;23;20013;-76
2024/02/02 01:13:43;;;;;;;0.10;0.10;;;;;;;3.65;100.00;102038.34;6127651;23;20005;-76
2024/02/02 01:16:08;;;;;;;0.00;0.00;;;;;;;3.85;100.00;102070.31;6100815;23;20014;-75
2024/02/02 01:18:34;;;;;;;0.00;0.00;;;;;;;3.85;100.00;102056.78;6099635;23;20008;-76
2024/02/02 01:20:59;;;;;;;0.00;0.00;;;;;;;3.88;100.00;102063.72;6101085;23;19998;-76
2024/02/02 01:23:25;;;;;;;0.00;0.00;;;;;;;3.86;100.00;102054.94;6099127;23;20390;-76
2024/02/02 01:25:50;;;;;;;0.00;0.00;;;;;;;3.93;100.00;102045.91;6102860;23;20089;-76
2024/02/02 01:28:16;;;;;;;0.10;0.10;;;;;;;4.11;100.00;102048.28;6101722;23;20165;-76
2024/02/02 01:30:41;;;;;;;0.10;0.10;;;;;;;4.30;100.00;102054.19;6130753;23;20013;-76
2024/02/02 01:33:07;;;;;;;0.00;0.00;;;;;;;4.42;100.00;102043.75;6076556;23;20010;-77
2024/02/02 01:35:32;;;;;;;0.00;0.00;;;;;;;4.37;100.00;102018.06;6106367;23;20041;-76
2024/02/02 01:37:58;;;;;;;0.00;0.00;;;;;;;4.51;100.00;102031.78;6078150;23;20018;-77
2024/02/02 01:40:23;;;;;;;0.00;0.00;;;;;;;4.69;100.00;102051.25;6097389;23;20010;-77
2024/02/02 01:42:50;;;;;;;0.10;0.10;;;;;;;4.76;100.00;102035.09;6103308;23;20008;-77
2024/02/02 01:45:16;;;;;;;0.03;0.03;;;;;;;4.79;100.00;102028.41;6077633;23;20010;-76
2024/02/02 01:47:42;;;;;;;0.00;0.00;;;;;;;4.87;100.00;102009.34;6135217;23;20037;-76
2024/02/02 01:50:08;;;;;;;0.00;0.00;;;;;;;5.04;100.00;102020.84;6102932;23;20010;-76
2024/02/02 01:52:33;;;;;;;0.00;0.00;;;;;;;5.04;100.00;102005.41;6101770;23;20140;-77
2024/02/02 01:55:04;;;;;;;0.00;0.00;;;;;;;5.23;100.00;102008.53;6129381;23;20006;-76
2024/02/02 01:57:30;;;;;;;0.00;0.00;;;;;;;5.23;100.00;101992.25;6125771;23;20117;-77
2024/02/02 01:59:56;;;;;;;0.00;0.00;;;;;;;5.22;100.00;101975.13;6080326;23;20006;-77
2024/02/02 02:02:21;;;;;;;0.00;0.00;;;;;;;5.34;100.00;101988.19;6129089;23;19998;-77
2024/02/02 02:04:47;;;;;;;0.00;0.00;;;;;;;5.46;100.00;102002.94;6115229;23;20061;-77
2024/02/02 02:07:22;;;;;;;0.00;0.00;;;;;;;5.25;100.00;101963.06;6114676;23;20006;-77
2024/02/02 02:09:57;;;;;;;0.00;0.00;;;;;;;5.38;100.00;101984.91;6114032;23;20001;-76
2024/02/02 02:12:33;;;;;;;0.00;0.00;;;;;;;5.64;100.00;101996.22;6108348;23;20018;-75
2024/02/02 02:15:02;;;;;;;0.00;0.00;;;;;;;5.60;100.00;101987.63;6137806;23;20002;-74
2024/02/02 02:17:27;;;;;;;0.00;0.00;;;;;;;5.70;100.00;101996.28;6111495;23;20045;-77
2024/02/02 02:19:53;;;;;;;0.00;0.00;;;;;;;5.66;100.00;101981.41;6134088;23;20429;-76
2024/02/02 02:22:19;;;;;;;0.00;0.00;;;;;;;5.84;100.00;101993.66;6110123;23;20433;-75
2024/02/02 02:24:52;;;;;;;0.00;0.00;;;;;;;5.92;100.00;102001.69;6105012;23;20010;-74
2024/02/02 02:27:17;;;;;;;0.00;0.00;;;;;;;5.93;100.00;101993.34;6112104;23;20006;-77
2024/02/02 02:29:46;;;;;;;0.00;0.00;;;;;;;5.98;100.00;101978.38;6108904;23;20018;-77
2024/02/02 02:32:12;;;;;;;0.00;0.00;;;;;;;5.83;100.00;101948.56;6109749;23;20093;-76
2024/02/02 02:34:38;;;;;;;0.00;0.00;;;;;;;6.09;100.00;101970.50;6112737;23;20037;-76
2024/02/02 02:37:06;;;;;;;0.00;0.00;;;;;;;6.04;100.00;101951.22;6113533;23;20017;-79
2024/02/02 02:39:34;;;;;;;0.00;0.00;;;;;;;6.23;100.00;101970.59;6110933;23;20086;-75
2024/02/02 02:42:04;;;;;;;0.00;0.00;;;;;;;6.19;100.00;101958.44;6133074;23;20014;-76
2024/02/02 02:44:30;;;;;;;0.00;0.00;;;;;;;6.41;100.00;101973.63;6108531;23;20006;-77
2024/02/02 02:46:56;;;;;;;0.00;0.00;;;;;;;6.21;100.00;101932.75;6113393;23;20017;-77
2024/02/02 02:49:25;;;;;;;0.00;0.00;;;;;;;6.46;100.00;101965.69;6113328;23;20006;-76
2024/02/02 02:51:58;;;;;;;0.00;0.00;;;;;;;6.15;100.00;101900.13;6115668;23;20034;-78
2024/02/02 02:54:23;;;;;;;0.00;0.00;;;;;;;6.29;100.00;101915.44;6134248;23;20084;-77
2024/02/02 02:56:49;;;;;;;0.00;0.00;;;;;;;6.55;100.00;101946.53;6136456;23;20006;-77
2024/02/02 02:59:20;;;;;;;0.00;0.00;;;;;;;6.57;100.00;101955.31;6092660;23;20016;-74
2024/02/02 03:01:46;;;;;;;0.00;0.00;;;;;;;6.54;100.00;101944.84;6115747;23;20028;-75
2024/02/02 03:04:12;;;;;;;0.00;0.00;;;;;;;6.35;100.00;101909.22;6114009;23;20037;-76
2024/02/02 03:06:47;;;;;;;;;;;;;;;;;;;;;
2024/02/02 03:09:36;;;;;;;0.00;0.00;;;;;;;6.64;100.00;101950.75;6134161;23;20002;-73
2024/02/02 03:12:02;;;;;;;0.00;0.00;;;;;;;6.47;100.00;101913.03;6111151;23;20009;-75
2024/02/02 03:14:37;;;;;;;0.00;0.00;;;;;;;6.53;100.00;101916.00;6130311;23;20002;-73
2024/02/02 03:17:03;;;;;;;0.00;0.00;;;;;;;6.47;100.00;101912.22;6112182;23;20022;-73
2024/02/02 03:19:28;;;;;;;0.10;0.10;;;;;;;6.67;100.00;101934.00;6133652;23;20026;-75
2024/02/02 03:21:54;;;;;;;0.00;0.00;;;;;;;6.50;100.00;101908.22;6111210;23;20034;-77
2024/02/02 03:24:20;;;;;;;0.10;0.10;;;;;;;6.60;100.00;101916.84;6109660;23;20012;-76
2024/02/02 03:27:15;;;;;;;0.00;0.00;;;;;;;6.65;100.00;101917.09;6107973;23;20030;-77
2024/02/02 03:29:45;;;;;;;0.00;0.00;;;;;;;6.43;100.00;101884.59;6107842;23;20073;-74
2024/02/02 03:32:11;;;;;;;0.00;0.00;;;;;;;6.42;100.00;101876.63;6135459;23;20002;-74
2024/02/02 03:34:38;;;;;;;0.00;0.00;;;;;;;6.32;100.00;101859.88;6107590;23;20085;-75
2024/02/02 03:37:04;;;;;;;0.00;0.00;;;;;;;6.45;100.00;101877.09;6106369;23;20018;-72
2024/02/02 03:39:32;;;;;;;0.00;0.00;;;;;;;6.69;100.00;101910.19;6132788;23;20085;-75
2024/02/02 03:42:10;;;;;;;;;;;;;;;;;;;;;
2024/02/02 03:44:37;;;;;;;0.00;0.00;;;;;;;6.76;100.00;101911.06;6137316;23;20029;-76
2024/02/02 03:47:10;;;;;;;0.00;0.00;;;;;;;6.47;100.00;101868.72;6134473;23;20085;-79
2024/02/02 03:49:37;;;;;;;0.00;0.00;;;;;;;6.76;100.00;101911.06;6125190;23;20060;-75
2024/02/02 03:52:07;;;;;;;0.00;0.00;;;;;;;6.83;100.00;101911.06;6127297;23;20074;-75
2024/02/02 03:54:32;;;;;;;0.00;0.00;;;;;;;6.89;100.00;101920.28;6102349;23;20149;-75
2024/02/02 03:56:58;;;;;;;0.00;0.00;;;;;;;6.93;100.00;101910.69;6075284;23;20049;-75
2024/02/02 03:59:23;;;;;;;0.00;0.00;;;;;;;6.96;100.00;101908.38;6126209;23;20491;-76
2024/02/02 04:01:49;;;;;;;0.00;0.00;;;;;;;7.00;100.00;101916.97;6078153;23;20049;-75
2024/02/02 04:04:14;;;;;;;0.00;0.00;;;;;;;6.97;100.00;101901.09;6098813;23;20396;-77
2024/02/02 04:06:40;;;;;;;0.00;0.00;;;;;;;7.02;100.00;101908.63;6079394;23;20010;-76
2024/02/02 04:09:07;;;;;;;0.00;0.00;;;;;;;6.97;100.00;101895.63;6074888;23;20002;-77
2024/02/02 04:11:32;;;;;;;0.00;0.00;;;;;;;6.97;100.00;101898.34;6102860;23;20010;-76
2024/02/02 04:13:58;;;;;;;0.00;0.00;;;;;;;7.02;100.00;101920.31;6076611;23;20081;-75
2024/02/02 04:16:23;;;;;;;0.00;0.00;;;;;;;6.90;100.00;101890.19;6077323;23;20006;-75
2024/02/02 04:18:51;;;;;;;0.00;0.00;;;;;;;7.06;100.00;101905.28;6103411;23;20006;-76
2024/02/02 04:21:24;;;;;;;0.00;0.00;;;;;;;7.11;100.00;101908.22;6074914;23;19990;-75
2024/02/02 04:23:51;;;;;;;0.00;0.00;;;;;;;7.14;100.00;101904.22;6104293;23;20030;-75
2024/02/02 04:26:17;;;;;;;0.00;0.00;;;;;;;7.20;100.00;101910.72;6098794;23;20013;-76
2024/02/02 04:28:42;;;;;;;0.00;0.00;;;;;;;7.22;100.00;101908.66;6128910;23;20008;-76
2024/02/02 04:31:08;;;;;;;0.00;0.00;;;;;;;7.26;100.00;101904.47;6100249;23;20082;-77
2024/02/02 04:33:33;;;;;;;0.00;0.00;;;;;;;7.28;100.00;101902.38;6128933;23;20014;-76
2024/02/02 04:35:59;;;;;;;0.00;0.00;;;;;;;7.21;100.00;101885.22;6103478;23;20018;-76
2024/02/02 04:38:24;;;;;;;0.00;0.00;;;;;;;7.29;100.00;101898.63;6078080;23;20022;-76
2024/02/02 04:40:49;;;;;;;0.00;0.00;;;;;;;7.35;100.00;101897.78;6078169;23;20086;-75
2024/02/02 04:43:15;;;;;;;0.00;0.00;;;;;;;7.35;100.00;101889.63;6128144;23;20038;-75
2024/02/02 04:45:41;;;;;;;0.00;0.00;;;;;;;7.41;100.00;101902.38;6101449;23;20323;-76
2024/02/02 04:48:07;;;;;;;0.00;0.00;;;;;;;7.37;100.00;101889.41;6100907;23;20092;-76
2024/02/02 04:50:32;;;;;;;0.00;0.00;;;;;;;7.39;100.00;101888.16;6103191;23;20033;-77
2024/02/02 04:52:58;;;;;;;0.00;0.00;;;;;;;7.45;100.00;101889.22;6128356;23;20005;-76
2024/02/02 04:55:34;;;;;;;0.10;0.10;;;;;;;7.45;100.00;101891.94;6076790;23;20018;-77
2024/02/02 04:57:59;;;;;;;0.00;0.00;;;;;;;7.49;100.00;101891.31;6103079;23;20027;-77
2024/02/02 05:00:25;;;;;;;0.00;0.00;;;;;;;7.56;100.00;101898.63;6101548;23;20038;-76
2024/02/02 05:02:50;;;;;;;0.00;0.00;;;;;;;7.56;100.00;101883.13;6125728;23;20039;-75
2024/02/02 05:05:18;;;;;;;0.00;0.00;;;;;;;7.64;100.00;101895.69;6080399;23;20012;-76
2024/02/02 05:07:43;;;;;;;0.00;0.00;;;;;;;7.65;100.00;101897.34;6101397;23;20010;-77
2024/02/02 05:10:11;;;;;;;0.00;0.00;;;;;;;7.55;100.00;101880.59;6077499;23;20088;-77
2024/02/02 05:12:36;;;;;;;0.00;0.00;;;;;;;7.67;100.00;101901.53;6101131;23;20061;-75
2024/02/02 05:15:04;;;;;;;0.00;0.00;;;;;;;7.66;100.00;101893.59;6079468;23;20134;-75
2024/02/02 05:17:30;;;;;;;0.00;0.00;;;;;;;7.57;100.00;101873.09;6100723;23;20044;-77
2024/02/02 05:19:55;;;;;;;0.00;0.00;;;;;;;7.55;100.00;101869.72;6100908;23;20002;-77
2024/02/02 05:22:21;;;;;;;0.00;0.00;;;;;;;7.58;100.00;101869.28;6077805;23;20009;-76
2024/02/02 05:24:48;;;;;;;0.00;0.00;;;;;;;7.70;100.00;101886.69;6104796;23;19998;-76
2024/02/02 05:27:14;;;;;;;0.00;0.00;;;;;;;7.81;100.00;101880.59;6080519;23;20010;-75
2024/02/02 05:29:44;;;;;;;0.00;0.00;;;;;;;7.71;100.00;101865.72;6102306;23;20057;-75
2024/02/02 05:32:10;;;;;;;0.00;0.00;;;;;;;7.87;100.00;101884.38;6103180;23;20014;-77
2024/02/02 05:34:35;;;;;;;0.00;0.00;;;;;;;7.84;100.00;101885.63;6125678;23;20006;-77
2024/02/02 05:37:05;;;;;;;0.00;0.00;;;;;;;7.74;100.00;101857.13;6117246;23;20015;-76
2024/02/02 05:39:34;;;;;;;0.00;0.00;;;;;;;7.80;100.00;101862.56;6069213;23;20086;-75
2024/02/02 05:48:46;;;;;;;0.00;0.00;;;;;;;7.58;100.00;101826.59;6157848;23;20028;-75
2024/02/02 05:51:15;;;;;;;0.03;0.03;;;;;;;7.76;100.00;101844.97;6010429;23;20124;-77
2024/02/02 05:53:43;;;;;;;0.00;0.00;;;;;;;7.81;100.00;101853.38;6107478;23;20012;-74
2024/02/02 05:56:09;;;;;;;0.00;0.00;;;;;;;7.91;100.00;101876.59;6082623;23;20010;-76
2024/02/02 05:58:34;;;;;;;0.00;0.00;;;;;;;7.80;100.00;101868.03;6131184;23;20017;-76
2024/02/02 06:01:00;;;;;;;0.00;0.00;;;;;;;7.84;100.00;101873.88;6107823;23;20013;-75
2024/02/02 06:03:28;;;;;;;0.00;0.00;;;;;;;7.92;100.00;101875.53;6085590;23;20004;-75
2024/02/02 06:05:53;;;;;;;0.00;0.00;;;;;;;7.93;100.00;101869.03;6108948;23;20097;-75
2024/02/02 06:08:19;;;;;;;0.10;0.10;;;;;;;7.91;100.00;101857.53;6085614;23;20014;-75
2024/02/02 06:10:45;;;;;;;0.00;0.00;;;;;;;7.94;100.00;101862.53;6104667;23;20021;-76
2024/02/02 06:13:21;;;;;;;0.00;0.00;;;;;;;7.91;100.00;101850.19;6105868;23;20045;-76
2024/02/02 06:15:46;;;;;;;0.00;0.00;;;;;;;8.00;100.00;101850.78;6106793;23;20036;-77
2024/02/02 06:18:14;;;;;;;0.00;0.00;;;;;;;7.94;100.00;101847.03;6129640;23;20061;-75
2024/02/02 06:20:47;;;;;;;0.00;0.00;;;;;;;8.04;100.00;101862.94;6107775;23;20063;-77
2024/02/02 06:23:16;;;;;;;0.00;0.00;;;;;;;8.08;100.00;101869.63;6080838;23;20867;-75
2024/02/02 06:25:41;;;;;;;0.00;0.00;;;;;;;8.08;100.00;101856.00;6155737;23;20010;-77
2024/02/02 06:28:08;;;;;;;0.00;0.00;;;;;;;8.06;100.00;101865.44;6106109;23;20097;-76
2024/02/02 06:30:33;;;;;;;0.10;0.10;;;;;;;8.09;100.00;101868.59;6080994;23;20075;-76
2024/02/02 06:33:01;;;;;;;0.00;0.00;;;;;;;8.04;100.00;101852.03;6081030;23;20017;-75
2024/02/02 06:35:28;;;;;;;0.00;0.00;;;;;;;8.03;100.00;101858.53;6084094;23;20016;-74
2024/02/02 06:37:53;;;;;;;0.00;0.00;;;;;;;8.03;100.00;101858.53;6129870;23;20020;-74
2024/02/02 06:40:19;;;;;;;0.00;0.00;;;;;;;8.10;100.00;101870.25;6103602;23;20114;-76
2024/02/02 06:42:44;;;;;;;0.00;0.00;;;;;;;8.04;100.00;101854.75;6103390;23;20440;-76
2024/02/02 06:45:10;;;;;;;0.00;0.00;;;;;;;8.09;100.00;101860.41;6158481;23;20076;-76
2024/02/02 06:47:37;;;;;;;0.00;0.00;;;;;;;8.08;100.00;101858.72;6104850;23;20013;-74
2024/02/02 06:50:04;;;;;;;0.00;0.00;;;;;;;8.09;100.00;101871.31;6130345;23;20455;-75
2024/02/02 06:52:32;;;;;;;0.00;0.00;;;;;;;8.00;100.00;101857.09;6129535;23;20065;-76
2024/02/02 06:54:57;;;;;;;0.00;0.00;;;;;;;8.04;100.00;101868.38;6105316;23;20013;-76
2024/02/02 06:57:25;;;;;;;0.00;0.00;;;;;;;7.98;100.00;101852.91;6126958;23;19988;-75
2024/02/02 06:59:51;;;;;;;0.00;0.00;;;;;;;8.03;100.00;101866.69;6156827;23;20076;-76
2024/02/02 07:02:30;;;;;;;0.00;0.00;;;;;;;8.02;100.00;101862.31;6128728;23;20012;-75
2024/02/02 07:04:56;;;;;;;0.00;0.00;;;;;;;8.02;100.00;101860.41;6132391;23;20005;-75
2024/02/02 07:07:25;;;;;;;0.00;0.00;;;;;;;8.08;100.00;101866.91;6127979;23;20257;-76
2024/02/02 07:09:56;;;;;;;0.00;0.00;;;;;;;8.17;100.00;101881.13;6130636;23;20002;-73
2024/02/02 07:12:46;;;;;;;0.00;0.00;;;;;;;8.18;100.00;101883.66;6156158;23;20080;-76
2024/02/02 07:15:18;;;;;;;0.00;0.00;;;;;;;8.19;100.00;101866.25;6130394;23;20518;-75
2024/02/02 07:17:45;;;;;;;0.00;0.00;;;;;;;8.29;100.00;101878.56;6129576;23;20009;-73
2024/02/02 07:20:10;;;;;;;0.05;0.05;;;;;;;8.38;100.00;101885.44;6129415;23;20009;-75
2024/02/02 07:22:50;;;;;;;;;;;;;;;;;;;;;
2024/02/02 07:25:21;;;;;;;0.00;0.00;;;;;;;8.38;100.00;101874.56;6131405;23;20088;-74
2024/02/02 07:28:07;;;;;;;0.00;0.00;;;;;;;8.33;100.00;101882.56;6129986;23;20275;-75
2024/02/02 07:30:53;;;;;;;0.00;0.00;;;;;;;8.31;100.00;101890.09;6159103;23;20006;-74
2024/02/02 07:33:41;;;;;;;0.00;0.00;;;;;;;8.29;100.00;101886.75;6156771;23;20088;-72
2024/02/02 07:36:29;;;;;;;0.00;0.00;;;;;;;8.15;100.00;101869.63;6132642;23;20005;-76
2024/02/02 07:38:55;;;;;;;0.00;0.00;;;;;;;8.18;100.00;101864.56;6157959;23;20081;-74
2024/02/02 07:41:24;;;;;;;0.00;0.00;;;;;;;8.24;100.00;101890.13;6157284;23;20001;-74
2024/02/02 07:44:00;;;;;;;0.00;0.00;;;;;;;8.09;100.00;101884.94;6108138;23;20014;-75
2024/02/02 07:46:26;;;;;;;0.00;0.00;;;;;;;8.04;100.00;101887.44;6126380;23;20080;-74
2024/02/02 07:48:53;;;;;;;0.00;0.00;;;;;;;7.94;100.00;101889.78;6128975;23;20445;-73
2024/02/02 07:51:19;;;;;;;0.00;0.00;;;;;;;7.93;100.00;101893.53;6135682;23;20122;-77
2024/02/02 07:53:48;;;;;;;0.00;0.00;;;;;;;7.77;100.00;101863.00;6160690;23;20360;-77
2024/02/02 07:56:15;;;;;;;0.00;0.00;;;;;;;7.84;100.00;101891.06;6132486;23;20006;-76
2024/02/02 07:58:41;;;;;;;0.00;0.00;;;;;;;7.61;100.00;101864.28;6158286;23;20005;-74
2024/02/02 08:01:33;;;;;;;0.00;0.00;;;;;;;7.56;100.00;101868.69;6156546;23;20423;-75
2024/02/02 08:04:16;;;;;;;0.00;0.00;;;;;;;7.63;100.00;101883.13;6129145;23;20100;-78
2024/02/02 08:06:42;;;;;;;0.00;0.00;;;;;;;7.69;100.00;101879.56;6107498;23;20017;-76
2024/02/02 08:09:09;;;;;;;0.00;0.00;;;;;;;7.96;100.00;101890.44;6129959;23;20084;-76
2024/02/02 08:11:38;;;;;;;0.00;0.00;;;;;;;8.04;100.00;101882.00;6156688;23;20092;-74
2024/02/02 08:14:06;;;;;;;0.00;0.00;;;;;;;8.22;100.00;101884.06;6129167;23;20006;-73
2024/02/02 08:16:35;;;;;;;0.00;0.00;;;;;;;8.37;100.00;101875.63;6156252;23;20006;-74
2024/02/02 08:19:00;;;;;;;0.00;0.00;;;;;;;8.43;100.00;101871.19;6130041;23;20380;-75
2024/02/02 08:21:26;;;;;;;0.00;0.00;;;;;;;8.59;100.00;101889.00;6081131;23;20017;-74
2024/02/02 08:23:54;;;;;;;0.00;0.00;;;;;;;8.58;100.00;101884.59;6127500;23;20005;-75
2024/02/02 08:26:19;;;;;;;0.00;0.00;;;;;;;8.59;100.00;101880.81;6105500;23;20032;-74
2024/02/02 08:28:45;;;;;;;0.00;0.00;;;;;;;8.67;100.00;101883.28;6102987;23;20021;-75
2024/02/02 08:31:10;;;;;;;0.00;0.00;;;;;;;8.87;100.00;101880.44;6079588;23;20010;-73
2024/02/02 08:33:37;;;;;;;0.00;0.00;;;;;;;8.88;100.00;101866.56;6079215;23;20092;-74
2024/02/02 08:36:02;;;;;;;0.00;0.00;;;;;;;9.02;100.00;101885.59;6102036;23;20010;-75
2024/02/02 08:38:28;;;;;;;0.00;0.00;;;;;;;9.16;100.00;101887.16;6104849;23;20437;-74
2024/02/02 08:40:54;;;;;;;0.00;0.00;;;;;;;9.29;100.00;101879.94;6078013;23;20036;-74
2024/02/02 08:43:20;;;;;;;0.00;0.00;;;;;;;9.41;100.00;101878.16;6081368;23;20606;-73
2024/02/02 08:46:12;;;;;;;0.00;0.00;;;;;;;9.59;100.00;101891.03;6080778;23;20081;-74
2024/02/02 08:48:44;;;;;;;0.00;0.00;;;;;;;9.84;100.00;101876.50;6122629;23;20465;-74
2024/02/02 08:51:22;;;;;;;0.00;0.00;;;;;;;10.21;100.00;101890.22;6128348;23;20009;-73
2024/02/02 08:53:48;;;;;;;0.00;0.00;;;;;;;10.22;100.00;101873.59;6128268;23;20010;-74
2024/02/02 08:56:15;;;;;;;0.05;0.05;;;;;;;10.19;100.00;101885.00;6153607;23;20011;-74
2024/02/02 08:58:41;;;;;;;0.00;0.00;;;;;;;10.05;100.00;101883.47;6105547;23;20345;-74
2024/02/02 09:01:33;;;;;;;0.00;0.00;;;;;;;10.35;100.00;101901.84;6156374;23;20016;-72
2024/02/02 09:03:59;;;;;;;0.00;0.00;;;;;;;10.53;100.00;101896.38;6131946;23;20013;-74
2024/02/02 09:06:43;;;;;;;0.00;0.00;;;;;;;10.62;100.00;101895.00;6104378;23;20013;-73
2024/02/02 09:09:14;;;;;;;0.00;0.00;;;;;;;10.85;100.00;101898.91;6153905;23;20010;-73
2024/02/02 09:11:46;;;;;;;0.00;0.00;;;;;;;10.96;100.00;101895.38;6154517;23;20370;-74
2024/02/02 09:14:17;;;;;;;0.00;0.00;;;;;;;11.11;100.00;101907.78;6130288;23;20340;-73
2024/02/02 09:16:52;;;;;;;0.00;0.00;;;;;;;11.30;99.91;101890.25;6131664;23;20085;-74
2024/02/02 09:19:26;;;;;;;0.00;0.00;;;;;;;11.74;98.99;101898.16;6106605;23;20028;-73
2024/02/02 09:21:56;;;;;;;0.00;0.00;;;;;;;12.53;92.88;101900.47;6130520;23;20005;-75
2024/02/02 09:24:34;;;;;;;0.00;0.00;;;;;;;13.19;87.96;101905.53;6131594;23;20231;-75
2024/02/02 09:27:00;;;;;;;0.00;0.00;;;;;;;14.22;80.45;101885.19;6128714;23;20344;-73
2024/02/02 09:29:25;;;;;;;0.00;0.00;;;;;;;15.13;77.18;101911.28;6156746;23;20010;-73
2024/02/02 09:31:51;;;;;;;0.00;0.00;;;;;;;15.95;71.50;101915.84;6156139;23;20009;-74
2024/02/02 09:34:24;;;;;;;0.00;0.00;;;;;;;15.23;70.55;101929.00;6104231;23;20017;-74
2024/02/02 09:36:53;;;;;;;0.00;0.00;;;;;;;14.00;74.80;101915.38;6128728;23;19998;-74
2024/02/02 09:39:38;;;;;;;0.00;0.00;;;;;;;13.03;80.53;101926.41;6129572;23;20044;-74
2024/02/02 09:42:28;;;;;;;0.03;0.03;;;;;;;12.32;84.85;101923.88;6153485;23;20025;-74
2024/02/02 09:44:58;;;;;;;0.00;0.00;;;;;;;11.86;88.08;101898.97;6132366;23;20009;-74
2024/02/02 09:47:34;;;;;;;0.00;0.00;;;;;;;11.70;90.16;101905.19;6127925;23;20017;-74
2024/02/02 09:50:23;;;;;;;0.00;0.00;;;;;;;11.58;92.29;101918.88;6157412;23;20145;-74
2024/02/02 09:53:11;;;;;;;0.00;0.00;;;;;;;11.45;93.95;101906.22;6155190;23;20008;-74
2024/02/02 09:55:52;;;;;;;0.00;0.00;;;;;;;11.56;94.84;101921.00;6153981;23;20014;-74
2024/02/02 09:58:42;;;;;;;0.00;0.00;;;;;;;11.58;94.70;101904.31;6153686;23;20006;-74
2024/02/02 10:01:46;;;;;;;0.00;0.00;;;;;;;11.73;93.06;101912.09;6129282;23;20339;-74
2024/02/02 10:04:14;;;;;;;0.00;0.00;;;;;;;11.88;92.17;101931.63;6155445;23;20080;-75
2024/02/02 10:07:09;;;;;;;0.00;0.00;;;;;;;11.77;92.47;101925.09;6154418;23;20002;-75
2024/02/02 10:10:03;;;;;;;0.00;0.00;;;;;;;11.57;93.56;101939.09;6125634;23;20360;-75
2024/02/02 10:12:39;;;;;;;0.00;0.00;;;;;;;11.20;94.19;101932.94;6124558;23;20032;-74
2024/02/02 10:15:21;;;;;;;0.00;0.00;;;;;;;10.97;96.29;101909.91;6152936;23;20021;-75
2024/02/02 10:18:23;;;;;;;0.00;0.00;;;;;;;11.25;97.07;101930.34;6157990;23;20010;-74
2024/02/02 10:20:52;;;;;;;0.00;0.00;;;;;;;11.40;94.84;101919.78;6129110;23;20361;-74
2024/02/02 10:23:53;;;;;;;0.00;0.00;;;;;;;11.34;94.88;101918.81;6156773;23;20975;-73
2024/02/02 10:26:25;;;;;;;0.00;0.00;;;;;;;11.32;95.52;101929.16;6129465;23;20069;-74
2024/02/02 10:29:04;;;;;;;0.00;0.00;;;;;;;11.28;95.70;101925.22;6129141;23;20009;-74
2024/02/02 10:31:38;;;;;;;0.00;0.00;;;;;;;11.17;95.58;101939.75;6154557;23;20119;-75
2024/02/02 10:34:38;;;;;;;0.00;0.00;;;;;;;10.90;97.02;101923.66;6129224;23;20036;-74
2024/02/02 10:37:36;;;;;;;0.00;0.00;;;;;;;10.91;98.41;101928.09;6152564;23;20021;-73
2024/02/02 10:40:22;;;;;;;0.00;0.00;;;;;;;11.15;97.45;101937.22;6131017;23;20013;-72
2024/02/02 10:43:03;;;;;;;0.00;0.00;;;;;;;11.52;97.24;101930.75;6125431;23;20014;-74
2024/02/02 10:46:06;;;;;;;0.00;0.00;;;;;;;11.66;94.15;101925.91;6127102;23;20010;-74
2024/02/02 10:48:48;;;;;;;0.00;0.00;;;;;;;11.68;93.81;101924.59;6156414;23;20020;-75
2024/02/02 10:51:50;;;;;;;0.00;0.00;;;;;;;11.72;94.18;101930.44;6125654;23;20006;-74
2024/02/02 10:55:03;;;;;;;;;;;;;;;;;;;;;
2024/02/02 10:57:48;;;;;;;0.00;0.00;;;;;;;11.42;92.98;101881.19;6154786;23;20074;-74
2024/02/02 11:00:26;;;;;;;0.00;0.00;;;;;;;11.16;93.92;101886.03;6129441;23;20010;-75
2024/02/02 11:09:42;;;;;;;0.00;0.00;;;;;;;11.15;96.93;101912.56;6155257;23;20017;-73
2024/02/02 11:12:16;;;;;;;0.00;0.00;;;;;;;11.27;96.25;101901.66;6151228;23;20010;-72
2024/02/02 11:14:50;;;;;;;0.00;0.00;;;;;;;11.57;95.32;101910.88;6154156;23;20017;-73
2024/02/02 11:17:22;;;;;;;;;;;;;;;11.73;93.71;101910.19;6129949;23;20012;-74
2024/02/02 11:20:00;;;;;;;0.00;0.00;;;;;;;11.89;92.46;101919.59;6121835;23;19987;-73
2024/02/02 11:22:38;;;;;;;0.00;0.00;;;;;;;11.91;91.89;101911.97;6130314;23;20040;-74
2024/02/02 11:25:35;;;;;;;0.00;0.00;;;;;;;11.97;91.19;101908.31;6155286;23;20063;-73
2024/02/02 11:28:11;;;;;;;0.00;0.00;;;;;;;11.98;91.02;101893.50;6079698;23;20005;-74
2024/02/02 11:31:02;;;;;;;0.00;0.00;;;;;;;12.14;91.09;101902.09;6130086;23;20063;-75
2024/02/02 11:34:02;;;;;;;0.00;0.00;;;;;;;12.20;89.70;101914.84;6128766;23;20040;-75
2024/02/02 11:36:54;;;;;;;0.08;0.08;;;;;;;12.15;89.79;101906.50;6128974;23;20005;-74
2024/02/02 11:39:40;;;;;;;0.00;0.00;;;;;;;12.13;89.34;101901.25;6123963;23;20008;-75
2024/02/02 11:42:14;;;;;;;0.00;0.00;;;;;;;12.11;89.99;101899.84;6106886;23;20009;-73
2024/02/02 11:44:44;;;;;;;0.00;0.00;;;;;;;12.13;89.46;101912.22;6133329;23;20006;-75
2024/02/02 11:47:13;;;;;;;0.00;0.00;;;;;;;12.10;89.38;101876.22;6105834;23;20010;-75
2024/02/02 11:49:48;;;;;;;0.00;0.00;;;;;;;12.37;89.47;101874.63;6129498;23;20028;-74
2024/02/02 11:52:26;;;;;;;;;;;;;;;12.67;87.21;101879.03;6155176;23;20005;-73
2024/02/02 11:55:10;;;;;;;0.00;0.00;;;;;;;12.51;86.02;101866.09;6128531;23;19909;-74
2024/02/02 11:57:41;;;;;;;0.00;0.00;;;;;;;12.48;86.09;101870.16;6156919;23;19997;-74
2024/02/02 12:00:14;;;;;;;0.00;0.00;;;;;;;12.52;86.42;101873.25;6155247;23;20015;-75
2024/02/02 12:02:42;;;;;;;0.00;0.00;;;;;;;12.44;86.63;101881.88;6130246;23;20002;-74